Time;durP1;ratioP1;P1;durP2;ratioP2;P2;SDS_P1;SDS_P2;PMS_P1;PMS_P2;Temp;Humidity;BMP_temperature;BMP_pressure;BME280_temperature;BME280_humidity;BME280_pressure;Samples;Min_cycle;Max_cycle;Signal;HPM_P1;HPM_P2
2024/03/14 00:00:22;;;;;;;7.38;3.67;;;10.20;99.90;;;;;;4979004;28;20046;-85
2024/03/14 00:02:48;;;;;;;6.22;3.35;;;10.20;99.90;;;;;;4968331;28;20027;-85
2024/03/14 00:05:14;;;;;;;4.20;3.25;;;10.10;99.90;;;;;;4974993;28;20487;-85
2024/03/14 00:07:41;;;;;;;4.80;3.15;;;10.10;99.90;;;;;;4978662;28;20444;-86
2024/03/14 00:10:07;;;;;;;4.70;3.33;;;10.10;99.90;;;;;;4973663;28;20116;-86
2024/03/14 00:12:33;;;;;;;5.57;3.25;;;10.10;99.90;;;;;;4974125;28;20030;-85
2024/03/14 00:14:59;;;;;;;5.38;3.20;;;10.10;99.90;;;;;;4981776;28;20018;-85
2024/03/14 00:17:25;;;;;;;4.10;2.70;;;10.10;99.90;;;;;;4980374;28;20029;-85
2024/03/14 00:19:50;;;;;;;4.55;3.33;;;10.10;99.90;;;;;;4978201;28;20399;-85
2024/03/14 00:22:19;;;;;;;4.10;2.97;;;10.10;99.90;;;;;;4979226;28;20427;-86
2024/03/14 00:24:45;;;;;;;4.38;3.20;;;10.10;99.90;;;;;;4969946;28;20386;-86
2024/03/14 00:27:12;;;;;;;5.13;3.45;;;10.10;99.90;;;;;;4974544;28;20401;-86
2024/03/14 00:29:37;;;;;;;5.32;3.17;;;10.10;99.90;;;;;;4969782;28;20065;-85
2024/03/14 00:32:03;;;;;;;8.50;3.67;;;10.10;99.90;;;;;;4975763;28;20395;-84
2024/03/14 00:34:29;;;;;;;4.85;3.28;;;10.10;99.90;;;;;;4976566;28;20391;-84
2024/03/14 00:36:56;;;;;;;2.95;2.45;;;10.20;99.90;;;;;;4968687;28;20058;-84
2024/03/14 00:39:22;;;;;;;5.85;3.30;;;10.10;99.90;;;;;;4978105;28;20033;-84
2024/03/14 00:41:50;;;;;;;6.03;3.60;;;10.10;99.90;;;;;;4973636;28;20034;-84
2024/03/14 00:44:17;;;;;;;6.30;3.42;;;10.10;99.90;;;;;;4979414;28;20236;-84
2024/03/14 00:46:43;;;;;;;3.78;3.00;;;10.10;99.90;;;;;;4972052;28;20509;-84
2024/03/14 00:49:09;;;;;;;4.65;3.30;;;10.10;99.90;;;;;;4967891;28;20041;-84
2024/03/14 00:51:34;;;;;;;6.18;3.90;;;10.10;99.90;;;;;;4973139;28;20034;-84
2024/03/14 00:54:04;;;;;;;5.18;3.55;;;10.00;99.90;;;;;;4977201;28;20030;-84
2024/03/14 00:56:33;;;;;;;5.25;4.05;;;10.00;99.90;;;;;;4977606;28;20041;-84
2024/03/14 00:58:59;;;;;;;6.88;3.83;;;10.00;99.90;;;;;;4978005;28;20050;-84
2024/03/14 01:01:25;;;;;;;6.18;4.38;;;10.00;99.90;;;;;;4971539;28;20096;-84
2024/03/14 01:03:52;;;;;;;5.55;4.45;;;10.00;99.90;;;;;;4963174;28;20094;-84
2024/03/14 01:06:18;;;;;;;6.65;4.00;;;9.90;99.90;;;;;;4970906;28;20085;-85
2024/03/14 01:08:43;;;;;;;6.20;4.65;;;9.90;99.90;;;;;;4976946;28;20022;-85
2024/03/14 01:11:09;;;;;;;7.32;4.38;;;9.90;99.90;;;;;;4969359;28;20027;-85
2024/03/14 01:13:35;;;;;;;8.18;4.97;;;9.90;99.90;;;;;;4974795;28;20023;-84
2024/03/14 01:16:00;;;;;;;5.70;4.70;;;9.90;99.90;;;;;;4975704;28;20065;-84
2024/03/14 01:18:26;;;;;;;8.23;5.13;;;9.90;99.90;;;;;;4974982;28;20066;-84
2024/03/14 01:20:52;;;;;;;6.75;5.07;;;9.80;99.90;;;;;;4979022;28;20439;-84
2024/03/14 01:23:17;;;;;;;7.68;5.43;;;9.80;99.90;;;;;;4976320;28;20030;-83
2024/03/14 01:25:44;;;;;;;9.00;5.93;;;9.80;99.90;;;;;;4968546;28;20039;-83
2024/03/14 01:28:10;;;;;;;8.63;6.50;;;9.80;99.90;;;;;;4977253;28;20030;-84
2024/03/14 01:30:36;;;;;;;9.82;5.93;;;9.80;99.90;;;;;;4978372;28;20085;-84
2024/03/14 01:33:02;;;;;;;8.90;5.90;;;9.70;99.90;;;;;;4973624;28;20027;-84
2024/03/14 01:35:27;;;;;;;9.75;6.90;;;9.70;99.90;;;;;;4977603;28;20034;-84
2024/03/14 01:37:55;;;;;;;11.00;7.47;;;9.70;99.90;;;;;;4977841;28;20027;-83
2024/03/14 01:40:21;;;;;;;12.80;7.53;;;9.70;99.90;;;;;;4978028;28;20035;-83
2024/03/14 01:42:54;;;;;;;11.50;8.02;;;9.80;99.90;;;;;;4977317;28;20536;-83
2024/03/14 01:45:21;;;;;;;12.90;8.23;;;9.80;99.90;;;;;;4977928;28;20030;-84
2024/03/14 01:47:47;;;;;;;12.52;8.25;;;9.80;99.90;;;;;;4977941;28;20478;-83
2024/03/14 01:50:14;;;;;;;11.73;8.15;;;9.80;99.90;;;;;;4994738;28;20030;-83
2024/03/14 01:52:39;;;;;;;11.30;8.68;;;9.80;99.90;;;;;;4976373;28;20105;-84
2024/03/14 01:55:08;;;;;;;14.45;9.90;;;9.80;99.90;;;;;;4976909;28;20031;-83
2024/03/14 01:57:34;;;;;;;14.75;9.32;;;9.80;99.90;;;;;;4992302;28;20470;-83
2024/03/14 02:00:01;;;;;;;15.95;9.18;;;9.80;99.90;;;;;;4970608;28;20108;-83
2024/03/14 02:02:27;;;;;;;15.82;10.50;;;9.80;99.90;;;;;;4977496;28;20023;-84
2024/03/14 02:05:07;;;;;;;14.65;10.18;;;9.90;99.90;;;;;;4976522;28;20038;-83
2024/03/14 02:07:37;;;;;;;14.95;10.45;;;9.90;99.90;;;;;;4977451;28;20026;-83
2024/03/14 02:10:04;;;;;;;15.55;10.63;;;9.80;99.90;;;;;;4976885;28;20869;-84
2024/03/14 02:12:29;;;;;;;18.20;11.27;;;9.80;99.90;;;;;;4979928;28;20144;-83
2024/03/14 02:14:55;;;;;;;14.25;11.10;;;9.80;99.90;;;;;;4973961;28;20069;-84
2024/03/14 02:17:21;;;;;;;17.38;11.35;;;9.80;99.90;;;;;;4965449;28;20033;-84
2024/03/14 02:19:46;;;;;;;16.50;11.27;;;9.80;99.90;;;;;;4977550;28;20085;-84
2024/03/14 02:22:19;;;;;;;19.42;11.70;;;9.70;99.90;;;;;;4976990;28;20026;-83
2024/03/14 02:24:46;;;;;;;14.95;11.00;;;9.70;99.90;;;;;;4968904;28;20400;-83
2024/03/14 02:27:12;;;;;;;14.27;10.38;;;9.70;99.90;;;;;;4976375;28;20030;-84
2024/03/14 02:29:39;;;;;;;17.27;11.60;;;9.60;99.90;;;;;;4975592;28;20360;-84
2024/03/14 02:32:04;;;;;;;16.48;11.10;;;9.60;99.90;;;;;;4975915;28;20058;-83
2024/03/14 02:34:30;;;;;;;15.50;10.98;;;9.50;99.90;;;;;;4972860;28;20085;-84
2024/03/14 02:36:56;;;;;;;18.17;11.55;;;9.50;99.90;;;;;;4976578;28;20496;-83
2024/03/14 02:39:22;;;;;;;17.33;11.98;;;9.50;99.90;;;;;;4972506;28;20038;-83
2024/03/14 02:41:50;;;;;;;17.17;11.95;;;9.40;99.90;;;;;;4976464;28;20023;-83
2024/03/14 02:44:16;;;;;;;15.48;11.95;;;9.40;99.90;;;;;;4994174;28;20069;-84
2024/03/14 02:46:42;;;;;;;14.80;10.50;;;9.30;99.90;;;;;;4975841;28;20081;-84
2024/03/14 02:49:14;;;;;;;17.58;11.85;;;9.30;99.90;;;;;;4993564;28;20024;-84
2024/03/14 02:51:45;;;;;;;19.55;12.55;;;9.30;99.90;;;;;;4981430;28;20507;-83
2024/03/14 02:54:11;;;;;;;15.48;11.00;;;9.10;99.90;;;;;;4973017;28;20046;-84
2024/03/14 02:56:37;;;;;;;16.55;10.85;;;9.10;99.90;;;;;;4974732;28;20490;-84
2024/03/14 02:59:02;;;;;;;17.10;11.68;;;9.10;99.90;;;;;;4972680;28;20055;-84
2024/03/14 03:01:30;;;;;;;16.08;11.95;;;9.10;99.90;;;;;;4972800;28;20054;-83
2024/03/14 03:03:57;;;;;;;13.55;10.27;;;9.10;99.90;;;;;;4972845;28;20395;-84
2024/03/14 03:06:26;;;;;;;16.85;10.48;;;9.10;99.90;;;;;;4973120;28;20034;-84
2024/03/14 03:08:52;;;;;;;17.17;11.45;;;9.00;99.90;;;;;;4972320;28;20026;-83
2024/03/14 03:11:18;;;;;;;19.52;12.38;;;9.00;99.90;;;;;;4971360;28;20023;-84
2024/03/14 03:13:44;;;;;;;18.05;11.82;;;9.00;99.90;;;;;;4972696;28;20505;-83
2024/03/14 03:16:11;;;;;;;15.82;12.07;;;9.00;99.90;;;;;;4964973;28;20030;-84
2024/03/14 03:18:38;;;;;;;19.38;11.52;;;9.00;99.90;;;;;;4973367;28;20054;-83
2024/03/14 03:21:05;;;;;;;17.33;12.02;;;9.00;99.90;;;;;;4961908;28;20155;-83
2024/03/14 03:23:30;;;;;;;18.23;12.85;;;9.00;99.90;;;;;;4968168;28;20035;-83
2024/03/14 03:25:56;;;;;;;17.98;13.00;;;9.00;99.90;;;;;;4968354;28;20042;-83
2024/03/14 03:28:22;;;;;;;17.35;12.55;;;9.00;99.90;;;;;;4972701;28;20023;-83
2024/03/14 03:30:47;;;;;;;18.30;12.65;;;8.90;99.90;;;;;;4972852;28;20166;-84
2024/03/14 03:33:17;;;;;;;17.02;12.13;;;8.90;99.90;;;;;;4969038;28;20057;-84
2024/03/14 03:35:45;;;;;;;18.55;12.63;;;8.90;99.90;;;;;;4971109;28;20026;-84
2024/03/14 03:38:16;;;;;;;17.10;11.80;;;8.90;99.90;;;;;;4966199;28;20039;-84
2024/03/14 03:40:43;;;;;;;15.57;11.52;;;8.90;99.90;;;;;;4971082;28;20034;-84
2024/03/14 03:43:09;;;;;;;18.50;12.63;;;8.80;99.90;;;;;;4972626;28;20090;-84
2024/03/14 03:45:35;;;;;;;17.17;12.55;;;8.90;99.90;;;;;;4958828;28;20082;-84
2024/03/14 03:48:01;;;;;;;18.63;13.25;;;8.80;99.90;;;;;;4971451;28;20479;-84
2024/03/14 03:50:27;;;;;;;17.85;13.45;;;8.90;99.90;;;;;;4972427;28;20034;-84
2024/03/14 03:52:53;;;;;;;22.63;14.50;;;8.80;99.90;;;;;;4972802;28;20384;-85
2024/03/14 03:55:19;;;;;;;18.98;12.93;;;8.80;99.90;;;;;;4972631;28;20065;-84
2024/03/14 03:57:46;;;;;;;19.55;13.55;;;8.80;99.90;;;;;;4973746;28;20059;-84
2024/03/14 04:02:57;;;;;;;24.17;12.80;;;8.70;99.90;;;;;;4966140;28;20038;-84
2024/03/14 04:05:25;;;;;;;19.38;13.65;;;8.70;99.90;;;;;;4972547;28;20158;-84
2024/03/14 04:07:51;;;;;;;19.42;13.63;;;8.70;99.90;;;;;;4963312;28;20058;-84
2024/03/14 04:10:17;;;;;;;16.85;13.05;;;8.70;99.90;;;;;;4966459;28;20396;-84
2024/03/14 04:12:44;;;;;;;18.52;13.95;;;8.80;99.90;;;;;;4953335;29;20023;-84
2024/03/14 04:15:10;;;;;;;17.35;13.50;;;8.70;99.90;;;;;;4972032;28;20122;-84
2024/03/14 04:17:36;;;;;;;19.30;12.88;;;8.70;99.90;;;;;;4971844;28;20125;-84
2024/03/14 04:20:10;;;;;;;18.35;12.77;;;8.80;99.90;;;;;;4966785;28;20053;-84
2024/03/14 04:22:36;;;;;;;19.35;13.68;;;8.70;99.90;;;;;;4972476;28;20111;-84
2024/03/14 04:25:09;;;;;;;19.90;12.38;;;8.70;99.90;;;;;;4972435;28;20562;-84
2024/03/14 04:27:34;;;;;;;21.13;14.43;;;8.70;99.90;;;;;;4972227;28;20033;-84
2024/03/14 04:30:00;;;;;;;16.90;12.65;;;8.60;99.90;;;;;;4971457;28;20035;-83
2024/03/14 04:32:26;;;;;;;19.08;12.52;;;8.60;99.90;;;;;;4972066;28;20031;-84
2024/03/14 04:34:51;;;;;;;19.55;11.73;;;8.60;99.90;;;;;;4971875;28;20050;-84
2024/03/14 04:37:17;;;;;;;16.90;12.27;;;8.60;99.90;;;;;;4966284;28;20106;-84
2024/03/14 04:39:43;;;;;;;17.67;11.50;;;8.60;99.90;;;;;;4967137;28;22165;-84
2024/03/14 04:42:09;;;;;;;16.67;12.68;;;8.60;99.90;;;;;;4971983;28;20125;-84
2024/03/14 04:44:36;;;;;;;17.50;11.68;;;8.60;99.90;;;;;;4971403;28;20125;-83
2024/03/14 04:47:03;;;;;;;16.45;12.25;;;8.60;99.90;;;;;;4974445;28;20030;-83
2024/03/14 04:49:32;;;;;;;16.80;11.05;;;8.60;99.90;;;;;;4973679;28;20023;-84
2024/03/14 04:51:57;;;;;;;14.15;10.35;;;8.60;99.90;;;;;;4971862;28;20031;-83
2024/03/14 04:54:24;;;;;;;13.57;9.93;;;8.60;99.90;;;;;;4956698;29;20024;-84
2024/03/14 04:56:50;;;;;;;15.05;10.27;;;8.60;99.90;;;;;;4970123;28;20050;-84
2024/03/14 04:59:15;;;;;;;14.88;9.82;;;8.60;99.90;;;;;;4989779;28;20085;-83
2024/03/14 05:01:42;;;;;;;13.77;9.80;;;8.50;99.90;;;;;;4976410;28;20045;-84
2024/03/14 05:04:08;;;;;;;13.73;9.45;;;8.50;99.90;;;;;;4975072;28;20026;-84
2024/03/14 05:06:33;;;;;;;13.27;9.43;;;8.50;99.90;;;;;;4975782;28;20503;-84
2024/03/14 05:09:00;;;;;;;12.35;8.98;;;8.50;99.90;;;;;;4975320;28;20030;-84
2024/03/14 05:11:25;;;;;;;16.10;9.88;;;8.50;99.90;;;;;;4974700;28;20030;-83
2024/03/14 05:13:56;;;;;;;12.65;8.65;;;8.50;99.90;;;;;;4971740;28;20046;-83
2024/03/14 05:16:23;;;;;;;12.07;8.68;;;8.50;99.90;;;;;;4975983;28;20025;-83
2024/03/14 05:18:48;;;;;;;11.02;8.45;;;8.50;99.90;;;;;;4970779;28;20030;-82
2024/03/14 05:21:15;;;;;;;12.95;8.73;;;8.50;99.90;;;;;;4974790;28;20031;-84
2024/03/14 05:23:41;;;;;;;15.07;9.90;;;8.50;99.90;;;;;;4968115;28;20157;-84
2024/03/14 05:26:07;;;;;;;16.10;8.73;;;8.50;99.90;;;;;;4970139;28;20142;-84
2024/03/14 05:28:33;;;;;;;11.88;8.18;;;8.50;99.90;;;;;;4975117;28;20031;-84
2024/03/14 05:30:59;;;;;;;12.32;8.30;;;8.40;99.90;;;;;;4973821;28;20542;-84
2024/03/14 05:33:25;;;;;;;11.60;8.60;;;8.50;99.90;;;;;;4967295;28;20031;-83
2024/03/14 05:35:50;;;;;;;10.63;7.95;;;8.40;99.90;;;;;;4972784;28;20078;-84
2024/03/14 05:38:16;;;;;;;10.85;8.00;;;8.40;99.90;;;;;;4963708;28;20063;-84
2024/03/14 05:40:41;;;;;;;11.50;9.00;;;8.40;99.90;;;;;;4973881;28;20039;-84
2024/03/14 05:43:08;;;;;;;10.55;8.02;;;8.40;99.90;;;;;;4974447;28;20026;-83
2024/03/14 05:45:34;;;;;;;10.48;7.15;;;8.40;99.90;;;;;;4971582;28;20139;-84
2024/03/14 05:48:11;;;;;;;12.18;8.40;;;8.40;99.90;;;;;;4963192;28;20023;-83
2024/03/14 05:50:37;;;;;;;11.07;7.03;;;8.40;99.90;;;;;;4970979;28;20027;-84
2024/03/14 05:53:03;;;;;;;10.70;7.85;;;8.40;99.90;;;;;;4973895;28;20092;-83
2024/03/14 05:55:29;;;;;;;9.15;7.38;;;8.30;99.90;;;;;;4974297;28;20030;-84
2024/03/14 05:57:55;;;;;;;9.77;7.07;;;8.30;99.90;;;;;;4974297;28;20025;-84
2024/03/14 06:00:21;;;;;;;9.77;7.35;;;8.30;99.90;;;;;;4976500;28;20066;-84
2024/03/14 06:02:47;;;;;;;9.90;7.00;;;8.30;99.90;;;;;;4974469;28;20504;-84
2024/03/14 06:05:14;;;;;;;10.23;7.18;;;8.30;99.90;;;;;;4974177;28;20035;-83
2024/03/14 06:07:41;;;;;;;9.60;6.05;;;8.30;99.90;;;;;;4964532;28;20035;-83
2024/03/14 06:10:07;;;;;;;9.10;6.90;;;8.20;99.90;;;;;;4960647;28;20082;-84
2024/03/14 06:12:33;;;;;;;9.45;6.82;;;8.20;99.90;;;;;;4964625;28;20031;-84
2024/03/14 06:14:59;;;;;;;8.60;6.35;;;8.20;99.90;;;;;;4956537;28;20085;-83
2024/03/14 06:17:25;;;;;;;12.02;7.55;;;8.20;99.90;;;;;;4969297;28;20063;-84
2024/03/14 06:19:51;;;;;;;11.38;7.50;;;8.20;99.90;;;;;;4972945;28;20041;-85
2024/03/14 06:22:17;;;;;;;11.60;6.65;;;8.20;99.90;;;;;;4972057;28;20022;-85
2024/03/14 06:24:45;;;;;;;8.27;5.80;;;8.20;99.90;;;;;;4971331;28;20030;-85
2024/03/14 06:27:14;;;;;;;12.07;7.38;;;8.10;99.90;;;;;;4971379;28;20126;-85
2024/03/14 06:29:41;;;;;;;11.90;6.75;;;8.10;99.90;;;;;;4968091;28;20031;-85
2024/03/14 06:32:07;;;;;;;10.93;6.75;;;8.10;99.90;;;;;;4972945;28;20027;-84
2024/03/14 06:34:33;;;;;;;11.18;7.50;;;8.10;99.90;;;;;;4973590;28;20098;-85
2024/03/14 06:36:59;;;;;;;8.57;6.07;;;8.10;99.90;;;;;;4964088;28;20116;-86
2024/03/14 06:39:26;;;;;;;11.52;6.10;;;8.10;99.90;;;;;;4973543;28;20034;-86
2024/03/14 06:41:54;;;;;;;9.32;6.82;;;8.10;99.90;;;;;;4973605;28;20088;-86
2024/03/14 06:44:22;;;;;;;11.68;7.05;;;8.10;99.90;;;;;;4966371;28;20138;-85
2024/03/14 06:46:48;;;;;;;11.27;7.28;;;8.20;99.90;;;;;;4973159;28;20031;-85
2024/03/14 06:49:14;;;;;;;10.45;6.43;;;8.20;99.90;;;;;;4973474;28;20567;-85
2024/03/14 06:51:41;;;;;;;10.68;6.70;;;8.30;99.90;;;;;;4971032;28;20030;-85
2024/03/14 06:54:07;;;;;;;7.97;6.53;;;8.30;99.90;;;;;;4967408;28;20030;-85
2024/03/14 06:56:35;;;;;;;9.10;6.85;;;8.40;99.90;;;;;;4972943;28;20101;-86
2024/03/14 06:59:12;;;;;;;10.38;6.68;;;8.40;99.90;;;;;;4968535;28;20161;-85
2024/03/14 07:01:38;;;;;;;9.80;6.88;;;8.40;99.90;;;;;;4965772;28;20039;-85
2024/03/14 07:04:04;;;;;;;7.63;5.97;;;8.50;99.90;;;;;;4969633;28;20030;-85
2024/03/14 07:06:31;;;;;;;9.77;6.68;;;8.60;99.90;;;;;;4966002;28;20039;-85
2024/03/14 07:08:58;;;;;;;11.18;7.32;;;8.70;99.90;;;;;;4971868;28;20019;-86
2024/03/14 07:11:25;;;;;;;9.93;7.00;;;8.70;99.90;;;;;;4970416;28;20063;-86
2024/03/14 07:13:54;;;;;;;9.50;6.35;;;8.80;99.90;;;;;;4973735;28;20034;-85
2024/03/14 07:16:23;;;;;;;10.20;7.18;;;8.90;99.90;;;;;;4971166;28;20057;-85
2024/03/14 07:18:49;;;;;;;10.95;7.38;;;8.90;99.90;;;;;;4971632;28;20035;-85
2024/03/14 07:21:18;;;;;;;10.32;7.32;;;9.00;99.90;;;;;;4972976;28;20121;-85
2024/03/14 07:23:48;;;;;;;12.25;8.07;;;9.10;99.90;;;;;;4972956;28;20033;-85
2024/03/14 07:26:24;;;;;;;10.55;7.65;;;9.20;99.90;;;;;;4962969;28;20039;-86
2024/03/14 07:28:53;;;;;;;8.55;7.03;;;9.20;99.90;;;;;;4969011;28;20023;-86
2024/03/14 07:31:19;;;;;;;11.07;7.22;;;9.30;99.90;;;;;;4969532;28;20033;-86
2024/03/14 07:33:45;;;;;;;8.88;6.82;;;9.40;99.90;;;;;;4972565;28;20143;-85
2024/03/14 07:36:15;;;;;;;10.50;7.75;;;9.50;99.90;;;;;;4972462;28;20045;-85
2024/03/14 07:38:49;;;;;;;11.70;8.20;;;9.60;99.90;;;;;;4972182;28;20034;-83
2024/03/14 07:41:22;;;;;;;10.10;7.20;;;9.70;99.90;;;;;;4966778;28;20027;-86
2024/03/14 07:43:53;;;;;;;11.30;7.72;;;9.80;99.90;;;;;;4969768;28;20403;-85
2024/03/14 07:46:19;;;;;;;8.85;7.28;;;9.80;99.90;;;;;;4961937;28;20035;-85
2024/03/14 07:48:48;;;;;;;10.02;7.07;;;9.90;99.90;;;;;;4971348;28;20122;-94
2024/03/14 07:51:15;;;;;;;12.15;7.93;;;10.00;99.90;;;;;;4970313;28;20078;-85
2024/03/14 07:53:40;;;;;;;12.15;8.15;;;10.10;99.90;;;;;;4962107;28;20035;-85
2024/03/14 07:56:09;;;;;;;11.10;7.78;;;10.20;99.90;;;;;;4962146;28;20118;-85
2024/03/14 07:58:38;;;;;;;10.95;6.97;;;10.20;99.90;;;;;;4960953;28;20484;-84
2024/03/14 08:01:09;;;;;;;13.38;7.95;;;10.30;99.90;;;;;;4967457;28;20034;-84
2024/03/14 08:03:42;;;;;;;12.07;7.57;;;10.40;99.90;;;;;;4968690;28;20022;-84
2024/03/14 08:06:10;;;;;;;9.73;6.85;;;10.40;99.90;;;;;;4970870;28;20045;-84
2024/03/14 08:08:37;;;;;;;9.32;7.28;;;10.50;99.90;;;;;;4967806;28;20054;-84
2024/03/14 08:11:09;;;;;;;8.57;6.82;;;10.60;99.90;;;;;;4979205;28;20030;-83
2024/03/14 08:13:35;;;;;;;8.90;6.90;;;10.60;99.90;;;;;;4967928;28;20368;-83
2024/03/14 08:16:22;;;;;;;8.07;6.40;;;10.80;99.90;;;;;;4976835;28;20037;-84
2024/03/14 08:18:48;;;;;;;7.63;5.80;;;10.90;99.90;;;;;;4972421;28;20106;-83
2024/03/14 08:21:14;;;;;;;8.50;6.55;;;11.00;99.90;;;;;;4970985;28;20030;-84
2024/03/14 08:23:48;;;;;;;7.85;6.00;;;11.10;99.90;;;;;;4977794;28;20136;-84
2024/03/14 08:26:16;;;;;;;7.35;5.03;;;11.30;99.90;;;;;;4972356;28;20042;-84
2024/03/14 08:28:43;;;;;;;5.90;4.78;;;11.40;99.90;;;;;;4972985;28;20022;-85
2024/03/14 08:31:15;;;;;;;6.88;4.45;;;11.50;99.90;;;;;;4976970;28;20029;-85
2024/03/14 08:33:44;;;;;;;;;;;11.60;99.90;;;;;;4978226;28;20033;-85
2024/03/14 08:36:09;;;;;;;6.28;4.03;;;11.60;99.90;;;;;;4976820;28;20227;-85
2024/03/14 08:38:35;;;;;;;5.18;3.85;;;11.70;99.90;;;;;;4978788;28;20028;-83
2024/03/14 08:41:02;;;;;;;6.13;4.15;;;11.80;99.90;;;;;;4977255;28;20026;-86
2024/03/14 08:43:28;;;;;;;4.82;3.88;;;11.90;99.90;;;;;;4980023;28;20038;-85
2024/03/14 08:45:55;;;;;;;7.72;4.45;;;12.00;99.90;;;;;;4960758;28;20035;-85
2024/03/14 08:48:21;;;;;;;5.07;4.00;;;12.10;99.90;;;;;;4971073;28;20080;-91
2024/03/14 08:50:47;;;;;;;5.55;4.35;;;12.20;99.90;;;;;;4978938;28;20027;-85
2024/03/14 08:53:13;;;;;;;4.75;3.22;;;12.40;99.90;;;;;;4969248;28;20077;-84
2024/03/14 08:55:54;;;;;;;4.57;3.75;;;12.50;99.90;;;;;;4972482;28;20030;-85
2024/03/14 08:58:25;;;;;;;4.65;3.45;;;12.70;99.90;;;;;;4977454;28;20030;-84
2024/03/14 09:00:53;;;;;;;5.70;3.70;;;12.80;99.90;;;;;;4974235;28;20063;-85
2024/03/14 09:03:19;;;;;;;4.97;3.70;;;12.90;99.90;;;;;;4971535;28;20026;-85
2024/03/14 09:05:45;;;;;;;4.47;3.20;;;12.90;99.90;;;;;;4978359;28;20046;-85
2024/03/14 09:08:11;;;;;;;4.32;2.63;;;13.00;99.90;;;;;;4969670;28;20518;-85
2024/03/14 09:10:38;;;;;;;3.80;2.83;;;13.10;99.90;;;;;;4978015;28;20026;-85
2024/03/14 09:13:07;;;;;;;3.40;2.53;;;13.00;99.90;;;;;;4976310;28;20033;-85
2024/03/14 09:15:35;;;;;;;3.40;2.60;;;13.00;99.90;;;;;;4986340;28;20034;-85
2024/03/14 09:18:01;;;;;;;3.13;2.55;;;13.00;99.90;;;;;;4975913;28;20152;-85
2024/03/14 09:20:28;;;;;;;3.13;2.47;;;13.00;99.90;;;;;;4973593;28;20411;-84
2024/03/14 09:22:53;;;;;;;4.00;2.63;;;12.90;99.90;;;;;;4978390;28;20030;-84
2024/03/14 09:25:21;;;;;;;4.53;2.53;;;12.90;99.90;;;;;;4976850;28;20049;-84
2024/03/14 09:27:47;;;;;;;3.75;2.75;;;12.90;99.90;;;;;;4976210;28;20042;-84
2024/03/14 09:30:17;;;;;;;4.22;3.05;;;12.90;99.90;;;;;;4972275;28;20475;-84
2024/03/14 09:32:42;;;;;;;3.63;2.70;;;12.90;99.90;;;;;;4969586;28;20077;-84
2024/03/14 09:35:13;;;;;;;4.65;2.75;;;12.90;99.90;;;;;;4976967;28;20430;-84
2024/03/14 09:37:39;;;;;;;6.43;2.25;;;13.00;99.90;;;;;;4965620;28;21441;-84
2024/03/14 09:40:05;;;;;;;4.00;2.78;;;13.00;99.90;;;;;;4977492;28;20022;-83
2024/03/14 09:42:32;;;;;;;6.25;2.45;;;13.10;99.90;;;;;;4990935;28;20034;-84
2024/03/14 09:45:00;;;;;;;3.13;2.05;;;13.30;99.90;;;;;;4978167;28;20037;-84
2024/03/14 09:47:38;;;;;;;2.75;1.90;;;13.40;99.90;;;;;;4973418;28;20030;-83
2024/03/14 09:50:06;;;;;;;2.30;1.70;;;13.60;99.90;;;;;;4977937;28;20038;-84
2024/03/14 09:52:36;;;;;;;2.72;2.05;;;13.60;99.90;;;;;;4977451;28;20069;-83
2024/03/14 09:55:09;;;;;;;4.72;1.90;;;13.80;99.90;;;;;;4977785;28;20434;-84
2024/03/14 09:57:36;;;;;;;4.63;1.70;;;13.80;99.90;;;;;;4965617;28;20419;-83
2024/03/14 10:00:02;;;;;;;2.85;1.85;;;13.80;99.90;;;;;;4975466;28;20054;-83
2024/03/14 10:02:30;;;;;;;4.07;1.83;;;13.80;99.90;;;;;;4972418;28;20081;-83
2024/03/14 10:04:56;;;;;;;3.58;1.60;;;13.80;99.90;;;;;;4990794;28;20040;-83
2024/03/14 10:07:21;;;;;;;3.08;2.00;;;13.90;99.90;;;;;;4977277;28;20026;-83
2024/03/14 10:09:48;;;;;;;3.22;2.03;;;13.80;99.90;;;;;;4976124;28;20046;-83
2024/03/14 10:12:14;;;;;;;2.10;1.38;;;13.80;99.90;;;;;;4986083;28;20026;-82
2024/03/14 10:14:43;;;;;;;3.03;1.40;;;13.70;99.90;;;;;;4976287;28;20029;-83
2024/03/14 10:17:10;;;;;;;4.00;1.38;;;13.70;99.90;;;;;;4970754;28;20069;-83
2024/03/14 10:19:36;;;;;;;3.53;1.98;;;13.60;99.90;;;;;;4991961;28;20033;-83
2024/03/14 10:22:05;;;;;;;3.13;1.73;;;13.60;99.90;;;;;;4976648;28;20436;-83
2024/03/14 10:24:32;;;;;;;2.95;2.10;;;13.60;99.90;;;;;;4976600;28;20033;-83
2024/03/14 10:26:59;;;;;;;2.83;2.28;;;13.70;99.90;;;;;;4961097;28;20043;-82
2024/03/14 10:29:32;;;;;;;4.20;1.98;;;13.80;99.90;;;;;;4968783;28;20475;-84
2024/03/14 10:31:58;;;;;;;7.50;2.40;;;13.90;99.90;;;;;;4972317;28;20109;-83
2024/03/14 10:34:24;;;;;;;4.47;2.47;;;13.90;99.90;;;;;;4975981;28;20114;-83
2024/03/14 10:36:54;;;;;;;2.75;1.88;;;13.90;99.90;;;;;;4976424;28;20506;-84
2024/03/14 10:39:22;;;;;;;4.80;2.58;;;14.00;99.90;;;;;;4977086;28;20500;-83
2024/03/14 10:41:49;;;;;;;2.17;1.67;;;14.00;99.90;;;;;;4975884;28;20056;-83
2024/03/14 10:44:21;;;;;;;3.47;1.70;;;14.10;99.90;;;;;;4975183;28;20019;-84
2024/03/14 10:46:51;;;;;;;2.90;1.20;;;14.10;99.90;;;;;;4977244;28;20065;-83
2024/03/14 10:49:20;;;;;;;3.28;2.13;;;14.20;99.90;;;;;;4975316;28;20089;-83
2024/03/14 10:51:49;;;;;;;3.40;1.92;;;14.30;99.90;;;;;;4976391;28;20093;-83
2024/03/14 10:54:17;;;;;;;3.83;1.70;;;14.40;99.90;;;;;;4975952;28;20057;-83
2024/03/14 10:56:45;;;;;;;2.05;1.80;;;14.50;99.90;;;;;;4974620;28;20550;-83
2024/03/14 10:59:13;;;;;;;2.22;1.55;;;14.50;99.90;;;;;;4969257;28;20058;-83
2024/03/14 11:01:40;;;;;;;5.15;1.15;;;14.60;99.90;;;;;;4993512;28;20093;-84
2024/03/14 11:04:11;;;;;;;4.88;1.48;;;14.70;99.90;;;;;;4969000;28;20031;-83
2024/03/14 11:06:38;;;;;;;4.25;1.02;;;14.70;99.90;;;;;;4989012;28;20038;-83
2024/03/14 11:09:10;;;;;;;1.83;0.98;;;14.70;99.90;;;;;;4974833;28;20022;-83
2024/03/14 11:11:38;;;;;;;4.10;1.10;;;14.70;99.90;;;;;;4976161;28;20026;-83
2024/03/14 11:14:11;;;;;;;3.55;1.20;;;14.80;99.90;;;;;;4974989;28;20331;-83
2024/03/14 11:16:42;;;;;;;2.20;1.13;;;14.80;99.90;;;;;;4974310;28;20398;-82
2024/03/14 11:19:14;;;;;;;5.18;1.08;;;14.90;99.90;;;;;;4989838;28;20031;-83
2024/03/14 11:21:42;;;;;;;2.05;0.90;;;15.00;99.90;;;;;;4974884;28;20038;-83
2024/03/14 11:24:12;;;;;;;3.65;1.00;;;15.10;99.90;;;;;;4973193;28;20050;-83
2024/03/14 11:26:42;;;;;;;2.72;1.00;;;15.20;99.90;;;;;;4987931;28;20037;-83
2024/03/14 11:29:11;;;;;;;1.80;0.80;;;15.20;99.90;;;;;;4986254;28;20031;-83
2024/03/14 11:31:44;;;;;;;2.78;0.80;;;15.30;99.90;;;;;;4971163;28;20069;-84
2024/03/14 11:34:17;;;;;;;2.38;0.85;;;15.40;99.90;;;;;;4975594;28;20026;-83
2024/03/14 11:36:50;;;;;;;3.72;1.15;;;15.40;99.90;;;;;;4963435;28;20054;-83
2024/03/14 11:39:26;;;;;;;2.25;0.60;;;15.40;99.90;;;;;;4974725;28;20014;-83
2024/03/14 11:42:15;;;;;;;1.80;0.60;;;15.50;99.90;;;;;;4970195;28;20514;-83
2024/03/14 11:44:46;;;;;;;1.85;0.60;;;15.60;99.90;;;;;;4982781;28;20038;-83
2024/03/14 11:47:16;;;;;;;1.98;0.70;;;15.60;99.90;;;;;;4967153;28;20093;-83
2024/03/14 11:49:46;;;;;;;2.20;0.93;;;15.70;99.90;;;;;;4968616;28;20026;-84
2024/03/14 11:52:15;;;;;;;1.75;0.68;;;15.80;99.90;;;;;;4975755;28;20034;-84
2024/03/14 11:54:41;;;;;;;2.53;0.80;;;15.80;99.90;;;;;;4974586;28;20030;-84
2024/03/14 11:57:08;;;;;;;1.45;0.70;;;15.90;99.90;;;;;;4975023;28;20026;-84
2024/03/14 11:59:39;;;;;;;1.17;0.70;;;15.90;99.90;;;;;;4992982;28;20053;-84
2024/03/14 12:02:04;;;;;;;1.67;0.60;;;16.00;99.90;;;;;;4975851;28;20050;-84
2024/03/14 12:04:30;;;;;;;1.35;0.73;;;16.00;99.90;;;;;;4963173;28;20066;-83
2024/03/14 12:06:58;;;;;;;4.30;0.60;;;16.10;99.90;;;;;;4978589;28;20085;-83
2024/03/14 12:09:30;;;;;;;4.05;0.50;;;16.20;99.90;;;;;;4973751;28;20042;-83
2024/03/14 12:11:56;;;;;;;;;;;16.30;99.90;;;;;;4966141;28;20534;-83
2024/03/14 12:14:22;;;;;;;1.40;0.50;;;16.30;99.90;;;;;;4993085;28;19906;-84
2024/03/14 12:16:48;;;;;;;1.63;0.60;;;16.40;99.90;;;;;;4975708;28;20030;-84
2024/03/14 12:19:16;;;;;;;1.88;0.50;;;16.50;99.90;;;;;;4993038;28;20030;-84
2024/03/14 12:22:02;;;;;;;3.20;0.50;;;16.60;99.90;;;;;;4974978;28;20482;-83
2024/03/14 12:24:27;;;;;;;1.73;0.45;;;16.60;99.90;;;;;;4974872;28;20061;-85
2024/03/14 12:26:57;;;;;;;1.08;0.47;;;16.70;99.90;;;;;;4972574;28;20031;-83
2024/03/14 12:29:24;;;;;;;1.65;0.30;;;16.80;99.90;;;;;;4961837;28;20023;-84
2024/03/14 12:31:50;;;;;;;1.48;0.35;;;16.80;99.90;;;;;;4995900;28;20022;-83
2024/03/14 12:34:16;;;;;;;1.95;0.60;;;16.90;99.90;;;;;;4973238;28;20037;-83
2024/03/14 12:36:46;;;;;;;1.98;0.40;;;17.00;99.90;;;;;;4975326;28;20117;-83
2024/03/14 12:39:12;;;;;;;1.88;0.73;;;17.00;99.90;;;;;;4975522;28;20073;-83
2024/03/14 12:41:38;;;;;;;2.00;0.80;;;17.00;99.90;;;;;;4992439;28;20046;-84
2024/03/14 12:44:08;;;;;;;1.90;0.63;;;17.10;99.90;;;;;;4960391;28;20058;-84
2024/03/14 12:46:35;;;;;;;1.40;0.50;;;17.20;99.90;;;;;;4969143;28;20034;-84
2024/03/14 12:49:03;;;;;;;1.80;0.75;;;17.20;99.90;;;;;;4973622;28;20029;-84